sensor_id;sensor_type;location;lat;lon;timestamp;P1;durP1;ratioP1;P2;durP2;ratioP2
757;SDS011;363;48.764;9.172;2023-05-07T00:01:35;4.93;;;4.43;;
757;SDS011;363;48.764;9.172;2023-05-07T00:04:00;6.00;;;4.53;;
757;SDS011;363;48.764;9.172;2023-05-07T00:06:27;6.68;;;4.63;;
757;SDS011;363;48.764;9.172;2023-05-07T00:08:53;7.50;;;5.28;;
757;SDS011;363;48.764;9.172;2023-05-07T00:11:19;5.60;;;4.70;;
757;SDS011;363;48.764;9.172;2023-05-07T00:13:45;6.00;;;4.20;;
757;SDS011;363;48.764;9.172;2023-05-07T00:16:12;4.75;;;4.35;;
757;SDS011;363;48.764;9.172;2023-05-07T00:18:38;4.70;;;4.30;;
757;SDS011;363;48.764;9.172;2023-05-07T00:21:03;4.17;;;3.87;;
757;SDS011;363;48.764;9.172;2023-05-07T00:23:29;5.37;;;4.43;;
757;SDS011;363;48.764;9.172;2023-05-07T00:25:55;4.73;;;4.33;;
757;SDS011;363;48.764;9.172;2023-05-07T00:28:21;4.63;;;4.22;;
757;SDS011;363;48.764;9.172;2023-05-07T00:30:46;4.40;;;4.00;;
757;SDS011;363;48.764;9.172;2023-05-07T00:33:12;5.03;;;4.60;;
757;SDS011;363;48.764;9.172;2023-05-07T00:35:37;4.27;;;3.87;;
757;SDS011;363;48.764;9.172;2023-05-07T00:38:03;4.17;;;3.77;;
757;SDS011;363;48.764;9.172;2023-05-07T00:40:29;4.77;;;4.37;;
757;SDS011;363;48.764;9.172;2023-05-07T00:42:54;4.90;;;4.40;;
757;SDS011;363;48.764;9.172;2023-05-07T00:45:23;4.93;;;4.53;;
757;SDS011;363;48.764;9.172;2023-05-07T00:47:55;4.13;;;3.83;;
757;SDS011;363;48.764;9.172;2023-05-07T00:50:22;4.72;;;4.30;;
757;SDS011;363;48.764;9.172;2023-05-07T00:52:48;4.40;;;4.00;;
757;SDS011;363;48.764;9.172;2023-05-07T00:55:14;5.83;;;4.23;;
757;SDS011;363;48.764;9.172;2023-05-07T00:57:40;4.77;;;4.30;;
757;SDS011;363;48.764;9.172;2023-05-07T01:00:06;5.45;;;3.85;;
757;SDS011;363;48.764;9.172;2023-05-07T01:02:34;4.25;;;3.85;;
757;SDS011;363;48.764;9.172;2023-05-07T01:05:01;4.35;;;3.95;;
757;SDS011;363;48.764;9.172;2023-05-07T01:07:31;4.68;;;4.20;;
757;SDS011;363;48.764;9.172;2023-05-07T01:09:57;9.70;;;4.18;;
757;SDS011;363;48.764;9.172;2023-05-07T01:12:23;4.18;;;3.88;;
757;SDS011;363;48.764;9.172;2023-05-07T01:14:50;4.10;;;3.75;;
757;SDS011;363;48.764;9.172;2023-05-07T01:17:16;6.50;;;4.17;;
757;SDS011;363;48.764;9.172;2023-05-07T01:19:42;4.70;;;3.97;;
757;SDS011;363;48.764;9.172;2023-05-07T01:22:09;4.03;;;3.72;;
757;SDS011;363;48.764;9.172;2023-05-07T01:24:40;5.20;;;4.07;;
757;SDS011;363;48.764;9.172;2023-05-07T01:27:06;4.80;;;4.30;;
757;SDS011;363;48.764;9.172;2023-05-07T01:29:32;4.33;;;4.00;;
757;SDS011;363;48.764;9.172;2023-05-07T01:31:58;4.60;;;4.20;;
757;SDS011;363;48.764;9.172;2023-05-07T01:34:25;3.78;;;3.47;;
757;SDS011;363;48.764;9.172;2023-05-07T01:36:54;4.40;;;4.00;;
757;SDS011;363;48.764;9.172;2023-05-07T01:39:20;4.20;;;3.90;;
757;SDS011;363;48.764;9.172;2023-05-07T01:41:50;4.43;;;4.13;;
757;SDS011;363;48.764;9.172;2023-05-07T01:44:15;5.67;;;5.00;;
757;SDS011;363;48.764;9.172;2023-05-07T01:46:43;5.00;;;4.50;;
757;SDS011;363;48.764;9.172;2023-05-07T01:49:09;4.97;;;4.10;;
757;SDS011;363;48.764;9.172;2023-05-07T01:51:34;4.67;;;4.27;;
757;SDS011;363;48.764;9.172;2023-05-07T01:54:01;3.78;;;3.47;;
757;SDS011;363;48.764;9.172;2023-05-07T01:56:26;4.80;;;4.00;;
757;SDS011;363;48.764;9.172;2023-05-07T01:58:52;4.90;;;4.40;;
757;SDS011;363;48.764;9.172;2023-05-07T02:01:18;5.10;;;4.70;;
757;SDS011;363;48.764;9.172;2023-05-07T02:03:43;5.30;;;4.80;;
757;SDS011;363;48.764;9.172;2023-05-07T02:06:09;4.27;;;3.90;;
757;SDS011;363;48.764;9.172;2023-05-07T02:08:35;8.53;;;4.37;;
757;SDS011;363;48.764;9.172;2023-05-07T02:11:00;7.63;;;4.67;;
757;SDS011;363;48.764;9.172;2023-05-07T02:13:28;4.43;;;4.03;;
757;SDS011;363;48.764;9.172;2023-05-07T02:15:55;5.25;;;4.75;;
757;SDS011;363;48.764;9.172;2023-05-07T02:18:21;4.73;;;4.33;;
757;SDS011;363;48.764;9.172;2023-05-07T02:20:46;4.63;;;4.23;;
757;SDS011;363;48.764;9.172;2023-05-07T02:23:12;4.90;;;4.40;;
757;SDS011;363;48.764;9.172;2023-05-07T02:25:37;5.60;;;5.10;;
757;SDS011;363;48.764;9.172;2023-05-07T02:28:03;6.30;;;4.30;;
757;SDS011;363;48.764;9.172;2023-05-07T02:30:29;5.00;;;4.60;;
757;SDS011;363;48.764;9.172;2023-05-07T02:32:54;4.87;;;4.17;;
757;SDS011;363;48.764;9.172;2023-05-07T02:35:20;4.90;;;4.40;;
757;SDS011;363;48.764;9.172;2023-05-07T02:37:45;4.53;;;4.13;;
757;SDS011;363;48.764;9.172;2023-05-07T02:40:11;4.80;;;4.50;;
757;SDS011;363;48.764;9.172;2023-05-07T02:42:37;4.87;;;4.40;;
757;SDS011;363;48.764;9.172;2023-05-07T02:45:02;4.60;;;4.20;;
757;SDS011;363;48.764;9.172;2023-05-07T02:47:28;4.60;;;4.10;;
757;SDS011;363;48.764;9.172;2023-05-07T02:49:54;6.40;;;4.07;;
757;SDS011;363;48.764;9.172;2023-05-07T02:52:20;7.85;;;4.70;;
757;SDS011;363;48.764;9.172;2023-05-07T02:54:46;4.45;;;4.15;;
757;SDS011;363;48.764;9.172;2023-05-07T02:57:12;5.23;;;4.47;;
757;SDS011;363;48.764;9.172;2023-05-07T02:59:37;4.53;;;4.20;;
757;SDS011;363;48.764;9.172;2023-05-07T03:02:03;4.23;;;3.87;;
757;SDS011;363;48.764;9.172;2023-05-07T03:04:29;4.90;;;4.50;;
757;SDS011;363;48.764;9.172;2023-05-07T03:06:54;6.10;;;5.50;;
757;SDS011;363;48.764;9.172;2023-05-07T03:09:20;4.23;;;3.93;;
757;SDS011;363;48.764;9.172;2023-05-07T03:11:46;4.30;;;4.00;;
757;SDS011;363;48.764;9.172;2023-05-07T03:14:11;4.77;;;4.37;;
757;SDS011;363;48.764;9.172;2023-05-07T03:16:37;5.20;;;4.50;;
757;SDS011;363;48.764;9.172;2023-05-07T03:19:03;4.85;;;4.45;;
757;SDS011;363;48.764;9.172;2023-05-07T03:21:29;4.80;;;4.40;;
757;SDS011;363;48.764;9.172;2023-05-07T03:23:55;4.78;;;4.25;;
757;SDS011;363;48.764;9.172;2023-05-07T03:26:21;4.03;;;3.73;;
757;SDS011;363;48.764;9.172;2023-05-07T03:28:47;4.57;;;3.50;;
757;SDS011;363;48.764;9.172;2023-05-07T03:31:12;4.80;;;3.90;;
757;SDS011;363;48.764;9.172;2023-05-07T03:33:42;4.60;;;4.20;;
757;SDS011;363;48.764;9.172;2023-05-07T03:36:21;4.82;;;4.43;;
757;SDS011;363;48.764;9.172;2023-05-07T03:38:47;5.22;;;4.68;;
757;SDS011;363;48.764;9.172;2023-05-07T03:41:13;5.15;;;4.65;;
757;SDS011;363;48.764;9.172;2023-05-07T03:43:39;4.60;;;4.20;;
757;SDS011;363;48.764;9.172;2023-05-07T03:46:05;4.20;;;3.90;;
757;SDS011;363;48.764;9.172;2023-05-07T03:48:30;4.37;;;4.07;;
757;SDS011;363;48.764;9.172;2023-05-07T03:50:57;4.40;;;4.00;;
757;SDS011;363;48.764;9.172;2023-05-07T03:53:22;5.63;;;4.45;;
757;SDS011;363;48.764;9.172;2023-05-07T03:55:48;5.63;;;4.83;;
757;SDS011;363;48.764;9.172;2023-05-07T03:58:14;6.15;;;4.28;;
757;SDS011;363;48.764;9.172;2023-05-07T04:00:40;5.03;;;4.20;;
757;SDS011;363;48.764;9.172;2023-05-07T04:03:06;3.87;;;3.57;;
757;SDS011;363;48.764;9.172;2023-05-07T04:05:32;4.93;;;4.43;;
757;SDS011;363;48.764;9.172;2023-05-07T04:07:58;4.33;;;4.00;;
757;SDS011;363;48.764;9.172;2023-05-07T04:10:24;5.45;;;4.30;;
757;SDS011;363;48.764;9.172;2023-05-07T04:12:50;4.30;;;3.90;;
757;SDS011;363;48.764;9.172;2023-05-07T04:15:16;4.73;;;4.33;;
757;SDS011;363;48.764;9.172;2023-05-07T04:17:41;4.40;;;4.00;;
757;SDS011;363;48.764;9.172;2023-05-07T04:20:10;4.27;;;3.87;;
757;SDS011;363;48.764;9.172;2023-05-07T04:22:39;5.07;;;4.60;;
757;SDS011;363;48.764;9.172;2023-05-07T04:25:05;5.53;;;4.33;;
757;SDS011;363;48.764;9.172;2023-05-07T04:27:31;5.68;;;4.15;;
757;SDS011;363;48.764;9.172;2023-05-07T04:29:57;4.82;;;4.43;;
757;SDS011;363;48.764;9.172;2023-05-07T04:32:22;5.13;;;4.50;;
757;SDS011;363;48.764;9.172;2023-05-07T04:34:49;6.95;;;4.07;;
757;SDS011;363;48.764;9.172;2023-05-07T04:37:15;4.87;;;4.37;;
757;SDS011;363;48.764;9.172;2023-05-07T04:39:41;4.43;;;4.13;;
757;SDS011;363;48.764;9.172;2023-05-07T04:42:06;3.80;;;3.50;;
757;SDS011;363;48.764;9.172;2023-05-07T04:44:34;5.28;;;4.78;;
757;SDS011;363;48.764;9.172;2023-05-07T04:47:01;4.50;;;4.05;;
757;SDS011;363;48.764;9.172;2023-05-07T04:49:27;4.20;;;3.90;;
757;SDS011;363;48.764;9.172;2023-05-07T04:51:53;4.30;;;3.87;;
757;SDS011;363;48.764;9.172;2023-05-07T04:54:18;4.90;;;4.40;;
757;SDS011;363;48.764;9.172;2023-05-07T04:56:44;4.53;;;4.13;;
757;SDS011;363;48.764;9.172;2023-05-07T04:59:10;4.20;;;3.80;;
757;SDS011;363;48.764;9.172;2023-05-07T05:01:35;4.70;;;4.30;;
757;SDS011;363;48.764;9.172;2023-05-07T05:04:02;5.07;;;3.90;;
757;SDS011;363;48.764;9.172;2023-05-07T05:06:28;4.00;;;3.70;;
757;SDS011;363;48.764;9.172;2023-05-07T05:08:54;5.95;;;4.50;;
757;SDS011;363;48.764;9.172;2023-05-07T05:11:20;4.28;;;3.97;;
757;SDS011;363;48.764;9.172;2023-05-07T05:13:46;4.40;;;4.00;;
757;SDS011;363;48.764;9.172;2023-05-07T05:16:14;4.50;;;4.10;;
757;SDS011;363;48.764;9.172;2023-05-07T05:18:40;5.07;;;4.60;;
757;SDS011;363;48.764;9.172;2023-05-07T05:21:05;4.20;;;3.77;;
757;SDS011;363;48.764;9.172;2023-05-07T05:23:31;4.30;;;3.90;;
757;SDS011;363;48.764;9.172;2023-05-07T05:25:57;4.03;;;3.73;;
757;SDS011;363;48.764;9.172;2023-05-07T05:28:23;5.15;;;4.40;;
757;SDS011;363;48.764;9.172;2023-05-07T05:30:49;4.33;;;4.00;;
757;SDS011;363;48.764;9.172;2023-05-07T05:33:15;4.40;;;4.10;;
757;SDS011;363;48.764;9.172;2023-05-07T05:35:41;4.00;;;3.70;;
757;SDS011;363;48.764;9.172;2023-05-07T05:38:07;4.00;;;3.60;;
757;SDS011;363;48.764;9.172;2023-05-07T05:40:32;4.90;;;3.70;;
757;SDS011;363;48.764;9.172;2023-05-07T05:42:58;3.93;;;3.63;;
757;SDS011;363;48.764;9.172;2023-05-07T05:45:24;4.03;;;3.72;;
757;SDS011;363;48.764;9.172;2023-05-07T05:47:50;4.73;;;4.33;;
757;SDS011;363;48.764;9.172;2023-05-07T05:50:15;3.90;;;3.60;;
757;SDS011;363;48.764;9.172;2023-05-07T05:52:41;5.33;;;4.07;;
757;SDS011;363;48.764;9.172;2023-05-07T05:55:07;5.50;;;4.43;;
757;SDS011;363;48.764;9.172;2023-05-07T05:57:33;4.15;;;3.85;;
757;SDS011;363;48.764;9.172;2023-05-07T05:59:59;5.03;;;4.53;;
757;SDS011;363;48.764;9.172;2023-05-07T06:02:25;4.10;;;3.70;;
757;SDS011;363;48.764;9.172;2023-05-07T06:04:51;3.83;;;3.53;;
757;SDS011;363;48.764;9.172;2023-05-07T06:07:16;4.60;;;4.20;;
757;SDS011;363;48.764;9.172;2023-05-07T06:09:42;4.57;;;4.20;;
757;SDS011;363;48.764;9.172;2023-05-07T06:12:08;5.30;;;4.83;;
757;SDS011;363;48.764;9.172;2023-05-07T06:14:33;4.70;;;4.20;;
757;SDS011;363;48.764;9.172;2023-05-07T06:16:59;4.60;;;4.30;;
757;SDS011;363;48.764;9.172;2023-05-07T06:19:27;5.32;;;4.93;;
757;SDS011;363;48.764;9.172;2023-05-07T06:21:53;4.47;;;4.07;;
757;SDS011;363;48.764;9.172;2023-05-07T06:24:21;4.90;;;4.50;;
757;SDS011;363;48.764;9.172;2023-05-07T06:26:46;4.27;;;3.90;;
757;SDS011;363;48.764;9.172;2023-05-07T06:29:12;5.07;;;4.57;;
757;SDS011;363;48.764;9.172;2023-05-07T06:31:37;4.90;;;4.53;;
757;SDS011;363;48.764;9.172;2023-05-07T06:34:03;4.80;;;4.40;;
757;SDS011;363;48.764;9.172;2023-05-07T06:36:29;4.60;;;4.20;;
757;SDS011;363;48.764;9.172;2023-05-07T06:38:55;5.80;;;5.10;;
757;SDS011;363;48.764;9.172;2023-05-07T06:41:21;4.87;;;4.47;;
757;SDS011;363;48.764;9.172;2023-05-07T06:43:47;6.07;;;5.57;;
757;SDS011;363;48.764;9.172;2023-05-07T06:46:12;5.37;;;4.87;;
757;SDS011;363;48.764;9.172;2023-05-07T06:48:38;5.43;;;4.93;;
757;SDS011;363;48.764;9.172;2023-05-07T06:51:03;6.37;;;5.87;;
757;SDS011;363;48.764;9.172;2023-05-07T06:53:29;6.60;;;6.10;;
757;SDS011;363;48.764;9.172;2023-05-07T06:55:55;7.60;;;5.88;;
757;SDS011;363;48.764;9.172;2023-05-07T06:58:21;8.90;;;6.43;;
757;SDS011;363;48.764;9.172;2023-05-07T07:00:47;6.33;;;5.83;;
757;SDS011;363;48.764;9.172;2023-05-07T07:03:13;5.70;;;5.20;;
757;SDS011;363;48.764;9.172;2023-05-07T07:05:40;6.50;;;4.63;;
757;SDS011;363;48.764;9.172;2023-05-07T07:08:06;6.30;;;5.70;;
757;SDS011;363;48.764;9.172;2023-05-07T07:10:32;6.13;;;5.70;;
757;SDS011;363;48.764;9.172;2023-05-07T07:12:57;8.03;;;6.57;;
757;SDS011;363;48.764;9.172;2023-05-07T07:15:23;5.93;;;5.50;;
757;SDS011;363;48.764;9.172;2023-05-07T07:17:50;5.60;;;5.20;;
757;SDS011;363;48.764;9.172;2023-05-07T07:20:15;5.10;;;4.70;;
757;SDS011;363;48.764;9.172;2023-05-07T07:22:41;4.93;;;4.53;;
757;SDS011;363;48.764;9.172;2023-05-07T07:25:07;5.60;;;4.77;;
757;SDS011;363;48.764;9.172;2023-05-07T07:27:32;5.03;;;4.33;;
757;SDS011;363;48.764;9.172;2023-05-07T07:29:58;5.23;;;4.73;;
757;SDS011;363;48.764;9.172;2023-05-07T07:32:23;5.13;;;4.73;;
757;SDS011;363;48.764;9.172;2023-05-07T07:34:49;5.67;;;5.27;;
757;SDS011;363;48.764;9.172;2023-05-07T07:37:14;5.30;;;4.90;;
757;SDS011;363;48.764;9.172;2023-05-07T07:39:40;5.57;;;5.10;;
757;SDS011;363;48.764;9.172;2023-05-07T07:42:06;4.83;;;4.43;;
757;SDS011;363;48.764;9.172;2023-05-07T07:44:31;4.60;;;4.30;;
757;SDS011;363;48.764;9.172;2023-05-07T07:46:57;5.13;;;4.37;;
757;SDS011;363;48.764;9.172;2023-05-07T07:49:22;4.30;;;4.00;;
757;SDS011;363;48.764;9.172;2023-05-07T07:51:48;4.83;;;4.33;;
757;SDS011;363;48.764;9.172;2023-05-07T07:54:13;5.53;;;4.90;;
757;SDS011;363;48.764;9.172;2023-05-07T07:56:39;5.70;;;4.20;;
757;SDS011;363;48.764;9.172;2023-05-07T07:59:04;4.00;;;3.60;;
757;SDS011;363;48.764;9.172;2023-05-07T08:01:30;4.37;;;4.07;;
757;SDS011;363;48.764;9.172;2023-05-07T08:03:56;4.40;;;4.10;;
757;SDS011;363;48.764;9.172;2023-05-07T08:06:23;4.57;;;4.20;;
757;SDS011;363;48.764;9.172;2023-05-07T08:08:50;3.70;;;3.40;;
757;SDS011;363;48.764;9.172;2023-05-07T08:11:16;4.07;;;3.67;;
757;SDS011;363;48.764;9.172;2023-05-07T08:13:41;3.80;;;3.60;;
757;SDS011;363;48.764;9.172;2023-05-07T08:16:07;3.67;;;3.37;;
757;SDS011;363;48.764;9.172;2023-05-07T08:18:32;3.57;;;3.20;;
757;SDS011;363;48.764;9.172;2023-05-07T08:20:58;3.60;;;3.30;;
757;SDS011;363;48.764;9.172;2023-05-07T08:23:23;3.17;;;2.97;;
757;SDS011;363;48.764;9.172;2023-05-07T08:25:49;3.37;;;3.17;;
757;SDS011;363;48.764;9.172;2023-05-07T08:28:16;3.90;;;3.60;;
757;SDS011;363;48.764;9.172;2023-05-07T08:30:41;3.23;;;2.80;;
757;SDS011;363;48.764;9.172;2023-05-07T08:33:08;3.57;;;3.27;;
757;SDS011;363;48.764;9.172;2023-05-07T08:35:34;3.20;;;3.00;;
757;SDS011;363;48.764;9.172;2023-05-07T08:38:00;3.03;;;2.80;;
757;SDS011;363;48.764;9.172;2023-05-07T08:40:25;3.20;;;3.00;;
757;SDS011;363;48.764;9.172;2023-05-07T08:42:52;3.57;;;2.93;;
757;SDS011;363;48.764;9.172;2023-05-07T08:45:19;3.03;;;2.83;;
757;SDS011;363;48.764;9.172;2023-05-07T08:47:52;3.60;;;3.30;;
757;SDS011;363;48.764;9.172;2023-05-07T08:50:23;3.27;;;3.07;;
757;SDS011;363;48.764;9.172;2023-05-07T08:52:49;4.17;;;3.43;;
757;SDS011;363;48.764;9.172;2023-05-07T08:55:14;3.40;;;3.20;;
757;SDS011;363;48.764;9.172;2023-05-07T08:57:40;3.67;;;3.37;;
757;SDS011;363;48.764;9.172;2023-05-07T09:00:06;5.17;;;3.33;;
757;SDS011;363;48.764;9.172;2023-05-07T09:02:32;3.40;;;3.10;;
757;SDS011;363;48.764;9.172;2023-05-07T09:04:59;2.90;;;2.70;;
757;SDS011;363;48.764;9.172;2023-05-07T09:07:25;3.03;;;2.83;;
757;SDS011;363;48.764;9.172;2023-05-07T09:09:51;3.27;;;3.07;;
757;SDS011;363;48.764;9.172;2023-05-07T09:12:17;3.10;;;2.90;;
757;SDS011;363;48.764;9.172;2023-05-07T09:14:43;3.07;;;2.77;;
757;SDS011;363;48.764;9.172;2023-05-07T09:17:10;3.10;;;2.90;;
757;SDS011;363;48.764;9.172;2023-05-07T09:19:36;3.23;;;3.03;;
757;SDS011;363;48.764;9.172;2023-05-07T09:22:02;2.80;;;2.60;;
757;SDS011;363;48.764;9.172;2023-05-07T09:24:29;2.80;;;2.57;;
757;SDS011;363;48.764;9.172;2023-05-07T09:26:59;3.03;;;2.83;;
757;SDS011;363;48.764;9.172;2023-05-07T09:29:26;3.37;;;2.67;;
757;SDS011;363;48.764;9.172;2023-05-07T09:31:53;2.47;;;2.37;;
757;SDS011;363;48.764;9.172;2023-05-07T09:34:19;2.50;;;2.30;;
757;SDS011;363;48.764;9.172;2023-05-07T09:36:45;2.17;;;2.07;;
757;SDS011;363;48.764;9.172;2023-05-07T09:39:11;3.07;;;2.40;;
757;SDS011;363;48.764;9.172;2023-05-07T09:41:44;3.20;;;2.50;;
757;SDS011;363;48.764;9.172;2023-05-07T09:44:14;2.60;;;2.40;;
757;SDS011;363;48.764;9.172;2023-05-07T09:46:41;2.17;;;2.03;;
757;SDS011;363;48.764;9.172;2023-05-07T09:49:11;2.77;;;2.57;;
757;SDS011;363;48.764;9.172;2023-05-07T09:51:48;2.50;;;2.30;;
757;SDS011;363;48.764;9.172;2023-05-07T09:54:15;2.60;;;2.40;;
757;SDS011;363;48.764;9.172;2023-05-07T09:56:42;3.40;;;2.33;;
757;SDS011;363;48.764;9.172;2023-05-07T09:59:08;2.60;;;2.30;;
757;SDS011;363;48.764;9.172;2023-05-07T10:01:37;2.23;;;2.13;;
757;SDS011;363;48.764;9.172;2023-05-07T10:04:05;3.50;;;2.60;;
757;SDS011;363;48.764;9.172;2023-05-07T10:06:33;2.50;;;2.30;;
757;SDS011;363;48.764;9.172;2023-05-07T10:09:00;2.80;;;2.60;;
757;SDS011;363;48.764;9.172;2023-05-07T10:11:25;2.60;;;2.40;;
757;SDS011;363;48.764;9.172;2023-05-07T10:13:52;3.20;;;3.00;;
757;SDS011;363;48.764;9.172;2023-05-07T10:16:18;2.80;;;2.60;;
757;SDS011;363;48.764;9.172;2023-05-07T10:18:44;4.53;;;2.67;;
757;SDS011;363;48.764;9.172;2023-05-07T10:21:11;2.87;;;2.67;;
757;SDS011;363;48.764;9.172;2023-05-07T10:23:46;3.53;;;2.60;;
757;SDS011;363;48.764;9.172;2023-05-07T10:26:14;2.77;;;2.57;;
757;SDS011;363;48.764;9.172;2023-05-07T10:28:43;3.10;;;2.90;;
757;SDS011;363;48.764;9.172;2023-05-07T10:31:15;3.10;;;2.90;;
757;SDS011;363;48.764;9.172;2023-05-07T10:34:01;2.87;;;2.70;;
757;SDS011;363;48.764;9.172;2023-05-07T10:36:32;3.27;;;2.97;;
757;SDS011;363;48.764;9.172;2023-05-07T10:38:59;6.37;;;3.43;;
757;SDS011;363;48.764;9.172;2023-05-07T10:41:25;3.07;;;2.87;;
757;SDS011;363;48.764;9.172;2023-05-07T10:43:50;4.00;;;3.30;;
757;SDS011;363;48.764;9.172;2023-05-07T10:46:17;3.40;;;3.10;;
757;SDS011;363;48.764;9.172;2023-05-07T10:51:28;3.03;;;2.83;;
757;SDS011;363;48.764;9.172;2023-05-07T10:56:38;5.13;;;2.60;;
757;SDS011;363;48.764;9.172;2023-05-07T10:59:37;3.00;;;2.70;;
757;SDS011;363;48.764;9.172;2023-05-07T11:01:58;3.37;;;3.10;;
757;SDS011;363;48.764;9.172;2023-05-07T11:04:24;3.07;;;2.87;;
757;SDS011;363;48.764;9.172;2023-05-07T11:12:16;3.03;;;2.73;;
757;SDS011;363;48.764;9.172;2023-05-07T11:17:09;3.53;;;3.33;;
757;SDS011;363;48.764;9.172;2023-05-07T11:19:51;5.30;;;2.60;;
757;SDS011;363;48.764;9.172;2023-05-07T11:24:59;3.43;;;3.03;;
757;SDS011;363;48.764;9.172;2023-05-07T11:27:25;3.40;;;3.10;;
757;SDS011;363;48.764;9.172;2023-05-07T11:29:51;2.63;;;2.47;;
757;SDS011;363;48.764;9.172;2023-05-07T11:32:27;3.10;;;2.60;;
757;SDS011;363;48.764;9.172;2023-05-07T11:34:54;3.20;;;2.87;;
757;SDS011;363;48.764;9.172;2023-05-07T11:37:21;3.93;;;2.50;;
757;SDS011;363;48.764;9.172;2023-05-07T11:39:47;3.60;;;2.40;;
757;SDS011;363;48.764;9.172;2023-05-07T11:42:33;3.17;;;2.97;;
757;SDS011;363;48.764;9.172;2023-05-07T11:44:59;2.43;;;2.33;;
757;SDS011;363;48.764;9.172;2023-05-07T11:47:25;2.83;;;2.50;;
757;SDS011;363;48.764;9.172;2023-05-07T11:49:54;3.33;;;3.10;;
757;SDS011;363;48.764;9.172;2023-05-07T11:52:21;3.60;;;3.20;;
757;SDS011;363;48.764;9.172;2023-05-07T11:54:51;2.80;;;2.60;;
757;SDS011;363;48.764;9.172;2023-05-07T11:57:21;4.13;;;3.83;;
757;SDS011;363;48.764;9.172;2023-05-07T11:59:47;3.63;;;3.30;;
757;SDS011;363;48.764;9.172;2023-05-07T12:02:14;3.00;;;2.80;;
757;SDS011;363;48.764;9.172;2023-05-07T12:04:40;3.27;;;2.97;;
757;SDS011;363;48.764;9.172;2023-05-07T12:07:11;4.10;;;3.37;;
757;SDS011;363;48.764;9.172;2023-05-07T12:09:40;3.80;;;3.50;;
757;SDS011;363;48.764;9.172;2023-05-07T12:12:06;4.33;;;3.93;;
757;SDS011;363;48.764;9.172;2023-05-07T12:14:32;4.07;;;3.23;;
757;SDS011;363;48.764;9.172;2023-05-07T12:16:57;4.10;;;3.80;;
757;SDS011;363;48.764;9.172;2023-05-07T12:19:27;3.03;;;2.63;;
757;SDS011;363;48.764;9.172;2023-05-07T12:21:54;1.83;;;1.73;;
757;SDS011;363;48.764;9.172;2023-05-07T12:24:21;3.07;;;2.13;;
757;SDS011;363;48.764;9.172;2023-05-07T12:26:46;3.77;;;2.13;;
757;SDS011;363;48.764;9.172;2023-05-07T12:29:12;3.23;;;2.40;;
757;SDS011;363;48.764;9.172;2023-05-07T12:31:40;4.23;;;3.23;;
757;SDS011;363;48.764;9.172;2023-05-07T12:34:06;6.83;;;4.43;;
757;SDS011;363;48.764;9.172;2023-05-07T12:36:38;8.37;;;4.40;;
757;SDS011;363;48.764;9.172;2023-05-07T12:39:05;11.18;;;5.45;;
757;SDS011;363;48.764;9.172;2023-05-07T12:41:35;10.82;;;5.45;;
757;SDS011;363;48.764;9.172;2023-05-07T12:44:16;6.85;;;3.20;;
757;SDS011;363;48.764;9.172;2023-05-07T12:46:42;3.00;;;2.53;;
757;SDS011;363;48.764;9.172;2023-05-07T12:49:07;6.90;;;3.97;;
757;SDS011;363;48.764;9.172;2023-05-07T12:51:34;9.43;;;4.15;;
757;SDS011;363;48.764;9.172;2023-05-07T12:54:01;10.55;;;4.45;;
757;SDS011;363;48.764;9.172;2023-05-07T12:56:30;6.90;;;4.00;;
757;SDS011;363;48.764;9.172;2023-05-07T12:58:59;6.53;;;4.00;;
757;SDS011;363;48.764;9.172;2023-05-07T13:01:28;4.28;;;2.40;;
757;SDS011;363;48.764;9.172;2023-05-07T13:03:55;3.50;;;3.13;;
757;SDS011;363;48.764;9.172;2023-05-07T13:06:20;7.30;;;4.50;;
757;SDS011;363;48.764;9.172;2023-05-07T13:08:46;5.40;;;3.20;;
757;SDS011;363;48.764;9.172;2023-05-07T13:11:12;2.57;;;2.03;;
757;SDS011;363;48.764;9.172;2023-05-07T13:13:38;3.13;;;1.70;;
757;SDS011;363;48.764;9.172;2023-05-07T13:16:05;5.22;;;2.90;;
757;SDS011;363;48.764;9.172;2023-05-07T13:18:33;4.00;;;2.60;;
757;SDS011;363;48.764;9.172;2023-05-07T13:20:59;3.50;;;2.70;;
757;SDS011;363;48.764;9.172;2023-05-07T13:23:26;2.60;;;2.13;;
757;SDS011;363;48.764;9.172;2023-05-07T13:25:52;3.65;;;2.70;;
757;SDS011;363;48.764;9.172;2023-05-07T13:28:18;6.38;;;2.60;;
757;SDS011;363;48.764;9.172;2023-05-07T13:30:45;2.92;;;2.30;;
757;SDS011;363;48.764;9.172;2023-05-07T13:33:10;2.13;;;1.90;;
757;SDS011;363;48.764;9.172;2023-05-07T13:35:36;2.03;;;1.93;;
757;SDS011;363;48.764;9.172;2023-05-07T13:38:02;1.90;;;1.40;;
757;SDS011;363;48.764;9.172;2023-05-07T13:40:28;2.90;;;2.00;;
757;SDS011;363;48.764;9.172;2023-05-07T13:42:53;2.30;;;2.10;;
757;SDS011;363;48.764;9.172;2023-05-07T13:45:23;2.25;;;1.95;;
757;SDS011;363;48.764;9.172;2023-05-07T13:47:50;4.68;;;2.08;;
757;SDS011;363;48.764;9.172;2023-05-07T13:50:16;2.03;;;1.75;;
757;SDS011;363;48.764;9.172;2023-05-07T13:52:45;3.43;;;2.20;;
757;SDS011;363;48.764;9.172;2023-05-07T13:55:15;2.60;;;2.40;;
757;SDS011;363;48.764;9.172;2023-05-07T13:57:42;4.97;;;2.65;;
757;SDS011;363;48.764;9.172;2023-05-07T14:00:08;4.80;;;2.60;;
757;SDS011;363;48.764;9.172;2023-05-07T14:02:34;3.53;;;2.17;;
757;SDS011;363;48.764;9.172;2023-05-07T14:04:59;3.03;;;1.80;;
757;SDS011;363;48.764;9.172;2023-05-07T14:07:25;3.20;;;1.90;;
757;SDS011;363;48.764;9.172;2023-05-07T14:09:51;2.20;;;2.00;;
757;SDS011;363;48.764;9.172;2023-05-07T14:12:16;3.73;;;2.30;;
757;SDS011;363;48.764;9.172;2023-05-07T14:14:42;2.40;;;2.20;;
757;SDS011;363;48.764;9.172;2023-05-07T14:17:07;2.17;;;2.07;;
757;SDS011;363;48.764;9.172;2023-05-07T14:19:33;3.77;;;3.10;;
757;SDS011;363;48.764;9.172;2023-05-07T14:21:58;4.60;;;3.27;;
757;SDS011;363;48.764;9.172;2023-05-07T14:24:24;2.67;;;2.47;;
757;SDS011;363;48.764;9.172;2023-05-07T14:26:50;2.50;;;2.30;;
757;SDS011;363;48.764;9.172;2023-05-07T14:29:16;2.97;;;2.73;;
757;SDS011;363;48.764;9.172;2023-05-07T14:31:43;2.70;;;2.50;;
757;SDS011;363;48.764;9.172;2023-05-07T14:34:10;3.45;;;3.00;;
757;SDS011;363;48.764;9.172;2023-05-07T14:36:35;3.47;;;3.17;;
757;SDS011;363;48.764;9.172;2023-05-07T14:39:01;2.70;;;2.50;;
757;SDS011;363;48.764;9.172;2023-05-07T14:41:27;2.97;;;2.78;;
757;SDS011;363;48.764;9.172;2023-05-07T14:43:52;3.17;;;2.50;;
757;SDS011;363;48.764;9.172;2023-05-07T14:46:19;2.90;;;2.60;;
757;SDS011;363;48.764;9.172;2023-05-07T14:48:45;3.92;;;2.60;;
757;SDS011;363;48.764;9.172;2023-05-07T14:51:11;3.60;;;2.80;;
757;SDS011;363;48.764;9.172;2023-05-07T14:53:37;2.70;;;2.50;;
757;SDS011;363;48.764;9.172;2023-05-07T14:56:02;3.30;;;2.50;;
757;SDS011;363;48.764;9.172;2023-05-07T14:58:30;4.97;;;3.38;;
757;SDS011;363;48.764;9.172;2023-05-07T15:00:57;4.90;;;2.30;;
757;SDS011;363;48.764;9.172;2023-05-07T15:03:23;3.47;;;3.17;;
757;SDS011;363;48.764;9.172;2023-05-07T15:05:50;3.30;;;2.60;;
757;SDS011;363;48.764;9.172;2023-05-07T15:08:16;5.22;;;2.75;;
757;SDS011;363;48.764;9.172;2023-05-07T15:10:42;3.00;;;2.70;;
757;SDS011;363;48.764;9.172;2023-05-07T15:13:08;3.40;;;3.17;;
757;SDS011;363;48.764;9.172;2023-05-07T15:15:34;5.13;;;3.83;;
757;SDS011;363;48.764;9.172;2023-05-07T15:18:00;5.80;;;3.23;;
757;SDS011;363;48.764;9.172;2023-05-07T15:20:26;3.30;;;3.10;;
757;SDS011;363;48.764;9.172;2023-05-07T15:22:51;2.80;;;2.60;;
757;SDS011;363;48.764;9.172;2023-05-07T15:25:17;3.87;;;3.57;;
757;SDS011;363;48.764;9.172;2023-05-07T15:27:43;3.43;;;3.10;;
757;SDS011;363;48.764;9.172;2023-05-07T15:30:08;3.20;;;2.90;;
757;SDS011;363;48.764;9.172;2023-05-07T15:32:36;4.15;;;3.20;;
757;SDS011;363;48.764;9.172;2023-05-07T15:35:02;3.95;;;3.20;;
757;SDS011;363;48.764;9.172;2023-05-07T15:37:30;5.63;;;3.00;;
757;SDS011;363;48.764;9.172;2023-05-07T15:39:56;3.45;;;3.15;;
757;SDS011;363;48.764;9.172;2023-05-07T15:42:21;7.70;;;3.43;;
757;SDS011;363;48.764;9.172;2023-05-07T15:44:47;4.07;;;3.10;;
757;SDS011;363;48.764;9.172;2023-05-07T15:47:13;4.10;;;3.70;;
757;SDS011;363;48.764;9.172;2023-05-07T15:49:39;3.30;;;3.00;;
757;SDS011;363;48.764;9.172;2023-05-07T15:52:05;5.28;;;3.47;;
757;SDS011;363;48.764;9.172;2023-05-07T15:54:31;4.23;;;3.90;;
757;SDS011;363;48.764;9.172;2023-05-07T15:56:56;3.57;;;3.23;;